Time;durP1;ratioP1;P1;durP2;ratioP2;P2;SDS_P1;SDS_P2;PMS_P1;PMS_P2;Temp;Humidity;BMP_temperature;BMP_pressure;BME280_temperature;BME280_humidity;BME280_pressure;Samples;Min_cycle;Max_cycle;Signal;HPM_P1;HPM_P2
2023/10/28 00:00:57;;;;;;;0.75;0.73;;;9.80;99.90;;;;;;5023495;28;20046;-81
2023/10/28 00:03:23;;;;;;;3.17;2.47;;;9.80;99.90;;;;;;5023529;28;20046;-80
2023/10/28 00:05:49;;;;;;;1.42;1.33;;;11.00;99.90;;;;;;5023054;28;20048;-81
2023/10/28 00:08:14;;;;;;;2.50;1.70;;;9.80;99.90;;;;;;5021539;28;20104;-80
2023/10/28 00:10:41;;;;;;;1.52;1.38;;;9.80;99.90;;;;;;5023519;28;20069;-80
2023/10/28 00:13:08;;;;;;;1.33;1.23;;;9.80;99.90;;;;;;5022738;28;20049;-81
2023/10/28 00:15:37;;;;;;;2.97;1.08;;;9.80;99.90;;;;;;5022859;28;20058;-81
2023/10/28 00:18:03;;;;;;;2.83;2.58;;;9.80;99.90;;;;;;5023067;28;20038;-80
2023/10/28 00:20:29;;;;;;;2.58;1.50;;;9.90;99.90;;;;;;5015214;28;20042;-80
2023/10/28 00:22:57;;;;;;;1.17;1.05;;;9.90;99.90;;;;;;5022862;28;20385;-80
2023/10/28 00:25:23;;;;;;;2.05;1.80;;;9.90;99.90;;;;;;5022185;28;20156;-81
2023/10/28 00:27:49;;;;;;;1.35;1.25;;;9.80;99.90;;;;;;5022782;28;20061;-80
2023/10/28 00:30:15;;;;;;;1.90;1.67;;;9.80;99.90;;;;;;5023278;28;20101;-80
2023/10/28 00:32:41;;;;;;;4.80;2.45;;;9.80;99.90;;;;;;5022882;28;20038;-80
2023/10/28 00:35:11;;;;;;;1.83;1.42;;;9.80;99.90;;;;;;5023267;28;20064;-80
2023/10/28 00:37:37;;;;;;;4.70;1.95;;;9.80;99.90;;;;;;5022322;28;20038;-80
2023/10/28 00:40:05;;;;;;;2.72;1.45;;;9.80;99.90;;;;;;5021631;28;20050;-80
2023/10/28 00:42:35;;;;;;;2.85;2.55;;;9.80;99.90;;;;;;5023051;28;20065;-80
2023/10/28 00:45:08;;;;;;;3.00;1.75;;;9.90;99.90;;;;;;5022105;28;20054;-80
2023/10/28 00:47:38;;;;;;;2.65;1.75;;;9.90;99.90;;;;;;5022747;28;20038;-80
2023/10/28 00:50:10;;;;;;;6.28;2.42;;;9.90;99.90;;;;;;5023257;28;20458;-81
2023/10/28 00:52:58;;;;;;;2.38;0.95;;;9.90;99.90;;;;;;5021688;28;20129;-81
2023/10/28 00:55:24;;;;;;;0.95;0.95;;;9.90;99.90;;;;;;5022136;28;20046;-81
2023/10/28 00:57:50;;;;;;;1.40;1.27;;;10.00;99.90;;;;;;5019967;28;20089;-79
2023/10/28 01:00:16;;;;;;;4.05;2.78;;;10.00;99.90;;;;;;5020395;28;20034;-80
2023/10/28 01:02:44;;;;;;;3.33;1.67;;;10.00;99.90;;;;;;5021297;28;20083;-79
2023/10/28 01:05:11;;;;;;;5.20;2.55;;;10.20;99.90;;;;;;5021442;28;20499;-81
2023/10/28 01:07:42;;;;;;;6.45;2.88;;;10.10;99.90;;;;;;5021018;28;20052;-80
2023/10/28 01:10:08;;;;;;;3.72;1.88;;;10.10;99.90;;;;;;5021400;28;20042;-80
2023/10/28 01:12:35;;;;;;;2.65;1.75;;;10.10;99.90;;;;;;5021266;28;20038;-80
2023/10/28 01:15:04;;;;;;;6.85;2.08;;;10.00;99.90;;;;;;5021588;28;20058;-80
2023/10/28 01:17:31;;;;;;;4.32;2.75;;;10.10;99.90;;;;;;5014791;28;20034;-81
2023/10/28 01:19:57;;;;;;;3.30;2.40;;;10.10;99.90;;;;;;5022087;28;20048;-81
2023/10/28 01:22:26;;;;;;;2.47;2.08;;;10.10;99.90;;;;;;5022152;28;20066;-82
2023/10/28 01:24:52;;;;;;;5.43;2.20;;;10.10;99.90;;;;;;5021759;28;20034;-82
2023/10/28 01:27:19;;;;;;;4.22;2.33;;;10.10;99.90;;;;;;5021629;28;20041;-82
2023/10/28 01:29:46;;;;;;;2.65;2.30;;;10.20;99.90;;;;;;5020339;28;20052;-81
2023/10/28 01:32:12;;;;;;;5.35;2.17;;;10.20;99.90;;;;;;5021841;28;20462;-81
2023/10/28 01:34:53;;;;;;;1.38;1.20;;;10.30;99.90;;;;;;5021993;28;20057;-82
2023/10/28 01:37:19;;;;;;;4.03;2.30;;;10.20;99.90;;;;;;5021762;28;20042;-82
2023/10/28 01:39:48;;;;;;;7.75;1.75;;;10.20;99.90;;;;;;5021535;28;20045;-80
2023/10/28 01:42:14;;;;;;;3.28;2.92;;;10.10;99.90;;;;;;5021768;28;20056;-81
2023/10/28 01:44:40;;;;;;;3.13;1.58;;;10.10;99.90;;;;;;5022171;28;20038;-81
2023/10/28 01:47:09;;;;;;;1.77;1.67;;;10.10;99.90;;;;;;5022007;28;20038;-81
2023/10/28 01:49:38;;;;;;;1.95;1.38;;;10.20;99.90;;;;;;5022811;28;20038;-81
2023/10/28 01:52:07;;;;;;;1.02;0.98;;;10.10;99.90;;;;;;5021447;28;20069;-81
2023/10/28 01:54:34;;;;;;;4.15;3.25;;;10.10;99.90;;;;;;5022615;28;20037;-80
2023/10/28 01:57:07;;;;;;;4.85;2.40;;;10.20;99.90;;;;;;5021482;28;20133;-81
2023/10/28 01:59:37;;;;;;;5.18;2.97;;;10.10;99.90;;;;;;5021921;28;20045;-81
2023/10/28 02:02:03;;;;;;;1.90;1.23;;;10.10;99.90;;;;;;5021237;28;20046;-81
2023/10/28 02:04:30;;;;;;;1.35;1.25;;;10.10;99.90;;;;;;5021236;28;20046;-80
2023/10/28 02:06:55;;;;;;;4.55;2.70;;;10.00;99.90;;;;;;5020803;28;20034;-80
2023/10/28 02:09:21;;;;;;;1.67;1.58;;;10.00;99.90;;;;;;5021515;28;20483;-80
2023/10/28 02:11:47;;;;;;;3.42;2.78;;;10.00;99.90;;;;;;5020285;28;20069;-81
2023/10/28 02:14:13;;;;;;;2.60;2.40;;;9.90;99.90;;;;;;5021061;28;20077;-80
2023/10/28 02:16:39;;;;;;;4.40;2.33;;;9.90;99.90;;;;;;5021456;28;20038;-82
2023/10/28 02:19:05;;;;;;;3.67;3.05;;;9.90;99.90;;;;;;5021149;28;20053;-80
2023/10/28 02:21:31;;;;;;;1.25;1.08;;;9.80;99.90;;;;;;5021407;28;20512;-81
2023/10/28 02:23:57;;;;;;;2.70;1.88;;;9.70;99.90;;;;;;5021242;28;20116;-81
2023/10/28 02:26:23;;;;;;;2.67;2.45;;;9.70;99.90;;;;;;5021589;28;20046;-81
2023/10/28 02:28:49;;;;;;;4.57;2.55;;;9.60;99.90;;;;;;5020522;28;20044;-81
2023/10/28 02:31:14;;;;;;;2.35;1.92;;;10.40;99.90;;;;;;5020769;28;20133;-80
2023/10/28 02:33:40;;;;;;;3.10;2.33;;;9.60;99.90;;;;;;5021218;28;20037;-81
2023/10/28 02:36:07;;;;;;;7.22;3.10;;;9.60;99.90;;;;;;5020227;28;20030;-81
2023/10/28 02:38:33;;;;;;;2.80;1.95;;;9.70;99.90;;;;;;5020618;28;20050;-80
2023/10/28 02:40:58;;;;;;;5.95;2.72;;;9.60;99.90;;;;;;5021363;28;20064;-80
2023/10/28 02:43:24;;;;;;;3.25;1.60;;;9.50;99.90;;;;;;5020979;28;20389;-81
2023/10/28 02:45:50;;;;;;;2.42;1.70;;;9.60;99.90;;;;;;5020664;28;20495;-81
2023/10/28 02:48:16;;;;;;;2.17;1.10;;;9.50;99.90;;;;;;5020976;28;20037;-81
2023/10/28 02:50:41;;;;;;;3.70;2.72;;;9.40;99.90;;;;;;5020745;28;20046;-81
2023/10/28 02:53:07;;;;;;;3.50;2.10;;;9.40;99.90;;;;;;5021012;28;20496;-81
2023/10/28 02:55:36;;;;;;;1.42;1.33;;;9.40;99.90;;;;;;5019979;28;20043;-81
2023/10/28 02:58:02;;;;;;;2.75;2.17;;;9.30;99.90;;;;;;5020596;28;20493;-83
2023/10/28 03:00:28;;;;;;;1.83;1.50;;;9.20;99.90;;;;;;5020796;28;20056;-81
2023/10/28 03:02:55;;;;;;;1.55;1.08;;;9.10;99.90;;;;;;5020347;28;20034;-81
2023/10/28 03:05:24;;;;;;;2.08;1.90;;;9.90;99.90;;;;;;5020365;28;20046;-81
2023/10/28 03:07:50;;;;;;;3.28;1.92;;;9.00;99.90;;;;;;5020748;28;20119;-81
2023/10/28 03:10:16;;;;;;;1.63;1.05;;;8.90;99.90;;;;;;5020426;28;20502;-81
2023/10/28 03:12:42;;;;;;;0.60;0.60;;;8.90;99.90;;;;;;5021142;28;20042;-81
2023/10/28 03:15:10;;;;;;;4.65;2.50;;;8.90;99.90;;;;;;5019974;28;20080;-81
2023/10/28 03:17:39;;;;;;;5.70;1.85;;;8.90;99.90;;;;;;5020259;28;20048;-81
2023/10/28 03:20:11;;;;;;;3.33;1.48;;;8.80;99.90;;;;;;5020334;28;20048;-81
2023/10/28 03:22:38;;;;;;;4.53;1.25;;;8.90;99.90;;;;;;5013743;28;20049;-81
2023/10/28 03:25:04;;;;;;;2.50;1.00;;;9.40;99.90;;;;;;5024903;28;20065;-82
2023/10/28 03:27:30;;;;;;;6.72;2.97;;;8.90;99.90;;;;;;5026652;28;20045;-82
2023/10/28 03:29:56;;;;;;;5.10;3.00;;;8.90;99.90;;;;;;5026569;28;20033;-81
2023/10/28 03:32:22;;;;;;;1.17;1.08;;;8.90;99.90;;;;;;5026292;28;20107;-81
2023/10/28 03:34:48;;;;;;;1.55;1.35;;;8.90;99.90;;;;;;5028872;28;20037;-81
2023/10/28 03:37:13;;;;;;;3.72;1.83;;;10.00;99.90;;;;;;5025134;28;20048;-81
2023/10/28 03:39:39;;;;;;;2.50;1.73;;;8.90;99.90;;;;;;5026938;28;20118;-81
2023/10/28 03:42:07;;;;;;;2.33;1.48;;;8.90;99.90;;;;;;5026081;28;20599;-81
2023/10/28 03:44:33;;;;;;;2.15;1.95;;;8.90;99.90;;;;;;5024678;28;20045;-81
2023/10/28 03:46:58;;;;;;;0.73;0.73;;;8.90;99.90;;;;;;5026563;28;20053;-82
2023/10/28 03:49:24;;;;;;;2.55;2.10;;;9.00;99.90;;;;;;5025758;28;20040;-81
2023/10/28 03:51:50;;;;;;;0.40;0.40;;;8.90;99.90;;;;;;5026600;28;20034;-81
2023/10/28 03:54:15;;;;;;;2.45;1.95;;;8.90;99.90;;;;;;5026629;28;20073;-81
2023/10/28 03:56:41;;;;;;;0.85;0.52;;;8.90;99.90;;;;;;5025647;28;20061;-81
2023/10/28 03:59:06;;;;;;;7.07;2.90;;;9.00;99.90;;;;;;5027382;28;20500;-81
2023/10/28 04:01:32;;;;;;;1.52;1.35;;;9.10;99.90;;;;;;5027158;28;20042;-81
2023/10/28 04:03:58;;;;;;;3.72;2.03;;;9.10;99.90;;;;;;5027555;28;20045;-81
2023/10/28 04:06:24;;;;;;;1.60;1.17;;;9.20;99.90;;;;;;5027217;28;20050;-81
2023/10/28 04:08:50;;;;;;;2.13;1.95;;;9.20;99.90;;;;;;5027466;28;20050;-81
2023/10/28 04:11:16;;;;;;;1.50;0.82;;;9.20;99.90;;;;;;5027167;28;20395;-81
2023/10/28 04:13:42;;;;;;;0.10;0.10;;;9.30;99.90;;;;;;5027644;28;20107;-82
2023/10/28 04:16:07;;;;;;;5.68;2.40;;;9.40;99.90;;;;;;5026656;28;20092;-81
2023/10/28 04:18:33;;;;;;;3.95;2.83;;;9.40;99.90;;;;;;5026855;28;20076;-81
2023/10/28 04:20:59;;;;;;;2.63;2.05;;;9.40;99.90;;;;;;5027178;28;20054;-81
2023/10/28 04:23:25;;;;;;;0.80;0.80;;;9.50;99.90;;;;;;5027122;28;20503;-81
2023/10/28 04:25:50;;;;;;;2.63;2.42;;;9.50;99.90;;;;;;5026380;28;20120;-81
2023/10/28 04:28:16;;;;;;;1.05;0.90;;;9.50;99.90;;;;;;5026368;28;20041;-80
2023/10/28 04:30:41;;;;;;;2.83;2.38;;;9.50;99.90;;;;;;5026355;28;20085;-82
2023/10/28 04:33:07;;;;;;;2.78;1.42;;;9.50;99.90;;;;;;5027060;28;20364;-81
2023/10/28 04:35:33;;;;;;;5.85;2.20;;;9.60;99.90;;;;;;5026168;28;20058;-81
2023/10/28 04:37:58;;;;;;;0.82;0.80;;;9.60;99.90;;;;;;5024052;28;20058;-81
2023/10/28 04:40:27;;;;;;;6.15;1.67;;;9.60;99.90;;;;;;5024180;28;20049;-81
2023/10/28 04:42:53;;;;;;;0.80;0.80;;;9.60;99.90;;;;;;5023908;28;20090;-81
2023/10/28 04:45:21;;;;;;;1.60;1.48;;;9.60;99.90;;;;;;5023768;28;20085;-81
2023/10/28 04:47:47;;;;;;;2.83;1.45;;;9.60;99.90;;;;;;5022984;28;20061;-81
2023/10/28 04:50:13;;;;;;;0.75;0.55;;;9.60;99.90;;;;;;5023765;28;20049;-81
2023/10/28 04:52:40;;;;;;;1.25;1.15;;;9.90;99.90;;;;;;5023419;28;20125;-82
2023/10/28 04:55:05;;;;;;;1.20;1.10;;;9.80;99.90;;;;;;5024076;28;20077;-81
2023/10/28 04:57:31;;;;;;;0.98;0.95;;;9.60;99.90;;;;;;5023398;28;20523;-81
2023/10/28 04:59:57;;;;;;;1.08;1.02;;;9.80;99.90;;;;;;5023122;28;20057;-80
2023/10/28 05:02:22;;;;;;;2.17;1.33;;;9.70;99.90;;;;;;5023427;28;20104;-81
2023/10/28 05:04:48;;;;;;;4.20;2.22;;;10.90;99.90;;;;;;5023185;28;20133;-81
2023/10/28 05:07:13;;;;;;;2.15;1.25;;;10.80;99.90;;;;;;5023402;28;20069;-82
2023/10/28 05:09:39;;;;;;;1.25;1.15;;;9.70;99.90;;;;;;5023262;28;20044;-81
2023/10/28 05:12:04;;;;;;;1.95;1.13;;;9.70;99.90;;;;;;5023297;28;20042;-81
2023/10/28 05:14:30;;;;;;;1.30;1.20;;;9.60;99.90;;;;;;5022935;28;20041;-81
2023/10/28 05:16:56;;;;;;;2.60;2.20;;;9.60;99.90;;;;;;5021311;28;20037;-81
2023/10/28 05:19:22;;;;;;;11.95;2.38;;;9.60;99.90;;;;;;5022876;28;20081;-81
2023/10/28 05:21:48;;;;;;;1.60;1.42;;;9.60;99.90;;;;;;5023039;28;20061;-82
2023/10/28 05:24:15;;;;;;;1.67;1.35;;;9.60;99.90;;;;;;5022952;28;20041;-81
2023/10/28 05:26:40;;;;;;;1.42;1.00;;;9.60;99.90;;;;;;5022194;28;20069;-80
2023/10/28 05:29:06;;;;;;;4.53;3.90;;;9.60;99.90;;;;;;5021908;28;20049;-81
2023/10/28 05:31:32;;;;;;;2.70;2.35;;;9.70;99.90;;;;;;5022043;28;20033;-81
2023/10/28 05:33:58;;;;;;;0.63;0.60;;;9.70;99.90;;;;;;5021758;28;20037;-82
2023/10/28 05:36:23;;;;;;;1.33;1.23;;;9.70;99.90;;;;;;5020570;28;20101;-81
2023/10/28 05:38:49;;;;;;;1.48;1.38;;;9.60;99.90;;;;;;5021446;28;20053;-82
2023/10/28 05:41:15;;;;;;;1.40;1.30;;;9.70;99.90;;;;;;5022109;28;20041;-81
2023/10/28 05:43:40;;;;;;;7.07;1.52;;;9.70;99.90;;;;;;5021573;28;20044;-81
2023/10/28 05:46:06;;;;;;;2.60;1.17;;;9.60;99.90;;;;;;5021661;28;20403;-81
2023/10/28 05:48:32;;;;;;;1.73;1.30;;;9.70;99.90;;;;;;5020910;28;20042;-81
2023/10/28 05:50:59;;;;;;;1.13;1.02;;;9.70;99.90;;;;;;5036426;28;20061;-81
2023/10/28 05:53:24;;;;;;;1.48;1.38;;;9.70;99.90;;;;;;5022086;28;20061;-82
2023/10/28 05:55:50;;;;;;;2.10;1.60;;;9.70;99.90;;;;;;5020945;28;20050;-81
2023/10/28 05:58:16;;;;;;;0.55;0.55;;;9.70;99.90;;;;;;5020865;28;20041;-81
2023/10/28 06:00:42;;;;;;;0.80;0.80;;;9.80;99.90;;;;;;5020155;28;20065;-81
2023/10/28 06:03:08;;;;;;;1.65;1.52;;;9.80;99.90;;;;;;5021365;28;20092;-81
2023/10/28 06:05:35;;;;;;;1.80;0.95;;;9.70;99.90;;;;;;5021470;28;20048;-81
2023/10/28 06:08:00;;;;;;;0.30;0.30;;;9.70;99.90;;;;;;5021807;28;20085;-81
2023/10/28 06:10:26;;;;;;;5.47;1.67;;;9.70;99.90;;;;;;5021363;28;20070;-81
2023/10/28 06:12:52;;;;;;;4.03;2.55;;;11.00;99.90;;;;;;5021441;28;20046;-82
2023/10/28 06:15:17;;;;;;;8.57;1.25;;;9.80;99.90;;;;;;5020979;28;20038;-81
2023/10/28 06:17:45;;;;;;;2.15;1.95;;;9.80;99.90;;;;;;5021484;28;20045;-81
2023/10/28 06:20:11;;;;;;;5.38;1.83;;;9.80;99.90;;;;;;5020822;28;20042;-81
2023/10/28 06:22:37;;;;;;;4.60;1.75;;;9.80;99.90;;;;;;5020776;28;20034;-82
2023/10/28 06:25:04;;;;;;;1.48;0.88;;;9.70;99.90;;;;;;5021315;28;20455;-81
2023/10/28 06:27:32;;;;;;;1.35;1.10;;;9.80;99.90;;;;;;5020750;28;20048;-81
2023/10/28 06:29:58;;;;;;;2.50;1.65;;;9.80;99.90;;;;;;5020962;28;20109;-81
2023/10/28 06:32:23;;;;;;;3.08;1.17;;;9.80;99.90;;;;;;5020783;28;20081;-82
2023/10/28 06:34:49;;;;;;;1.20;1.05;;;9.80;99.90;;;;;;5020983;28;20046;-81
2023/10/28 06:37:15;;;;;;;1.35;1.23;;;9.80;99.90;;;;;;5021048;28;20129;-82
2023/10/28 06:39:40;;;;;;;1.35;1.25;;;9.90;99.90;;;;;;5021241;28;20034;-81
2023/10/28 06:42:06;;;;;;;0.50;0.50;;;9.80;99.90;;;;;;5020684;28;20553;-82
2023/10/28 06:44:32;;;;;;;3.45;1.73;;;9.90;99.90;;;;;;5021003;28;20041;-81
2023/10/28 06:46:58;;;;;;;1.35;1.15;;;9.90;99.90;;;;;;5019493;28;20046;-81
2023/10/28 06:49:24;;;;;;;1.05;1.02;;;9.90;99.90;;;;;;5021474;28;20133;-81
2023/10/28 06:51:50;;;;;;;0.50;0.50;;;9.90;99.90;;;;;;5021082;28;20053;-81
2023/10/28 06:54:16;;;;;;;0.60;0.60;;;9.90;99.90;;;;;;5021153;28;20076;-81
2023/10/28 06:56:41;;;;;;;0.57;0.50;;;10.00;99.90;;;;;;5020182;28;20058;-80
2023/10/28 06:59:07;;;;;;;0.20;0.20;;;10.00;99.90;;;;;;5020171;28;20400;-81
2023/10/28 07:01:34;;;;;;;2.30;0.40;;;10.00;99.90;;;;;;5020869;28;20546;-81
2023/10/28 07:04:01;;;;;;;0.40;0.35;;;10.00;99.90;;;;;;5019999;28;20054;-81
2023/10/28 07:06:26;;;;;;;1.17;0.43;;;10.00;99.90;;;;;;5021140;28;20377;-81
2023/10/28 07:08:52;;;;;;;2.80;1.23;;;10.00;99.90;;;;;;5021139;28;20136;-81
2023/10/28 07:11:18;;;;;;;0.60;0.43;;;10.00;99.90;;;;;;5021362;28;20073;-82
2023/10/28 07:13:44;;;;;;;1.00;0.95;;;10.10;99.90;;;;;;5019342;28;20072;-81
2023/10/28 07:16:10;;;;;;;1.42;0.95;;;10.10;99.90;;;;;;5015448;28;20042;-80
2023/10/28 07:18:36;;;;;;;0.38;0.38;;;10.10;99.90;;;;;;5013527;28;20041;-79
2023/10/28 07:21:03;;;;;;;0.35;0.35;;;10.10;99.90;;;;;;5011956;28;20565;-80
2023/10/28 07:23:30;;;;;;;0.82;0.82;;;10.10;99.90;;;;;;5013991;28;20132;-80
2023/10/28 07:25:56;;;;;;;1.42;0.60;;;10.10;99.90;;;;;;5013165;28;20492;-80
2023/10/28 07:28:22;;;;;;;0.93;0.85;;;10.10;99.90;;;;;;5014314;28;20088;-80
2023/10/28 07:30:50;;;;;;;0.55;0.40;;;10.20;99.90;;;;;;5014227;28;20038;-81
2023/10/28 07:33:17;;;;;;;0.00;0.00;;;10.20;99.90;;;;;;5014272;28;20050;-80
2023/10/28 07:35:50;;;;;;;0.65;0.65;;;10.20;99.90;;;;;;5014760;28;20049;-80
2023/10/28 07:38:17;;;;;;;0.50;0.50;;;10.20;99.90;;;;;;5014358;28;20053;-80
2023/10/28 07:40:44;;;;;;;2.63;1.85;;;10.20;99.90;;;;;;5013422;28;20487;-80
2023/10/28 07:43:13;;;;;;;0.80;0.77;;;10.30;99.90;;;;;;5011473;28;20034;-81
2023/10/28 07:45:40;;;;;;;1.42;1.02;;;10.30;99.90;;;;;;5011251;28;20034;-80
2023/10/28 07:48:06;;;;;;;1.45;0.47;;;10.30;99.90;;;;;;5012020;28;20076;-80
2023/10/28 07:50:33;;;;;;;0.88;0.85;;;10.30;99.90;;;;;;5009433;28;20510;-80
2023/10/28 07:52:59;;;;;;;0.38;0.38;;;10.40;99.90;;;;;;5010899;28;20050;-80
2023/10/28 07:55:25;;;;;;;0.22;0.08;;;10.40;99.90;;;;;;5011178;28;20137;-80
2023/10/28 07:57:50;;;;;;;2.33;1.35;;;10.50;99.90;;;;;;5011019;28;20054;-80
2023/10/28 08:00:16;;;;;;;1.45;1.05;;;10.40;99.90;;;;;;5010945;28;20353;-80
2023/10/28 08:02:45;;;;;;;2.53;0.55;;;10.40;99.90;;;;;;5010899;28;20053;-80
2023/10/28 08:05:15;;;;;;;1.05;0.95;;;10.50;99.90;;;;;;5010538;28;20541;-80
2023/10/28 08:07:42;;;;;;;3.10;1.85;;;10.50;99.90;;;;;;5009211;28;20050;-80
2023/10/28 08:10:08;;;;;;;0.50;0.38;;;10.60;99.90;;;;;;5010225;28;20046;-80
2023/10/28 08:12:34;;;;;;;0.45;0.40;;;10.70;99.90;;;;;;5014266;28;20570;-80
2023/10/28 08:15:03;;;;;;;0.65;0.65;;;10.70;99.90;;;;;;5014195;28;20057;-80
2023/10/28 08:17:32;;;;;;;1.98;1.80;;;10.80;99.90;;;;;;5015241;28;20501;-80
2023/10/28 08:19:58;;;;;;;0.40;0.38;;;10.90;99.90;;;;;;5015754;28;20516;-80
2023/10/28 08:22:24;;;;;;;0.82;0.22;;;10.90;99.90;;;;;;5020246;28;20042;-80
2023/10/28 08:24:50;;;;;;;0.95;0.85;;;10.90;99.90;;;;;;5020460;28;20112;-80
2023/10/28 08:27:15;;;;;;;0.05;0.03;;;11.70;99.90;;;;;;5020187;28;20040;-80
2023/10/28 08:29:43;;;;;;;0.05;0.05;;;10.90;99.90;;;;;;5020214;28;20038;-80
2023/10/28 08:32:09;;;;;;;0.52;0.52;;;10.90;99.90;;;;;;5019619;28;20045;-80
2023/10/28 08:34:35;;;;;;;0.57;0.52;;;10.90;99.90;;;;;;5011584;28;20049;-80
2023/10/28 08:37:00;;;;;;;1.27;1.02;;;10.80;99.90;;;;;;5019767;28;20531;-81
2023/10/28 08:39:28;;;;;;;0.40;0.28;;;10.90;56.90;;;;;;5019483;28;20104;-81
2023/10/28 08:41:54;;;;;;;0.30;0.30;;;12.00;1.00;;;;;;5019836;28;20033;-80
2023/10/28 08:44:27;;;;;;;0.10;0.10;;;10.80;1.00;;;;;;5020289;28;20129;-80
2023/10/28 08:46:53;;;;;;;0.38;0.22;;;10.90;99.90;;;;;;5020821;28;20047;-81
2023/10/28 08:49:21;;;;;;;0.08;0.08;;;10.90;99.90;;;;;;5019923;28;20395;-80
2023/10/28 08:51:51;;;;;;;1.13;0.68;;;10.90;45.50;;;;;;5020296;28;20049;-80
2023/10/28 08:54:18;;;;;;;0.13;0.13;;;11.00;1.00;;;;;;5020692;28;20103;-80
2023/10/28 08:56:46;;;;;;;0.40;0.30;;;11.00;99.90;;;;;;5019509;28;20137;-80
2023/10/28 08:59:12;;;;;;;0.30;0.28;;;11.10;99.90;;;;;;5020685;28;20149;-81
2023/10/28 09:01:39;;;;;;;2.08;1.17;;;11.10;99.90;;;;;;5019338;28;20081;-81
2023/10/28 09:04:05;;;;;;;0.17;0.17;;;11.10;1.00;;;;;;5017838;28;20112;-80
2023/10/28 09:06:31;;;;;;;0.15;0.15;;;11.20;1.00;;;;;;5018912;28;20041;-80
2023/10/28 09:08:58;;;;;;;1.25;0.88;;;11.30;99.90;;;;;;5018853;28;20046;-79
2023/10/28 09:11:25;;;;;;;0.35;0.35;;;11.50;99.90;;;;;;5018509;28;20041;-80
2023/10/28 09:13:51;;;;;;;0.25;0.25;;;11.50;99.90;;;;;;5018455;28;20042;-79
2023/10/28 09:16:16;;;;;;;0.52;0.52;;;11.50;1.00;;;;;;5015992;28;20511;-79
2023/10/28 09:18:43;;;;;;;0.70;0.50;;;11.60;99.90;;;;;;5017800;28;20266;-80
2023/10/28 09:21:10;;;;;;;0.73;0.73;;;12.00;1.00;;;;;;5018365;28;20046;-80
2023/10/28 09:23:37;;;;;;;0.13;0.13;;;11.70;99.90;;;;;;5018448;28;20045;-80
2023/10/28 09:26:03;;;;;;;0.47;0.47;;;11.60;99.90;;;;;;5018593;28;20042;-80
2023/10/28 09:28:28;;;;;;;0.25;0.25;;;11.50;99.90;;;;;;5018163;28;20060;-80
2023/10/28 09:30:54;;;;;;;0.68;0.60;;;11.60;99.90;;;;;;5016542;28;20046;-80
2023/10/28 09:33:20;;;;;;;0.63;0.43;;;11.50;99.90;;;;;;5018118;28;20066;-80
2023/10/28 09:35:46;;;;;;;0.13;0.13;;;11.70;99.90;;;;;;5019293;28;20045;-80
2023/10/28 09:38:12;;;;;;;0.80;0.68;;;11.60;99.90;;;;;;5019555;28;20696;-80
2023/10/28 09:40:38;;;;;;;0.70;0.25;;;11.60;99.90;;;;;;5019019;28;20049;-80
2023/10/28 09:43:06;;;;;;;0.52;0.05;;;11.90;99.90;;;;;;5019135;28;20556;-80
2023/10/28 09:45:32;;;;;;;0.30;0.10;;;11.60;99.90;;;;;;5017822;28;20640;-80
2023/10/28 09:48:05;;;;;;;0.20;0.20;;;11.50;99.90;;;;;;5018143;28;20447;-80
2023/10/28 09:50:36;;;;;;;0.40;0.38;;;11.80;99.90;;;;;;5019119;28;20046;-80
2023/10/28 09:53:03;;;;;;;0.32;0.20;;;11.70;99.90;;;;;;5018533;28;20042;-81
2023/10/28 09:55:38;;;;;;;0.40;0.38;;;12.00;99.90;;;;;;5017485;28;20488;-80
2023/10/28 09:58:46;;;;;;;0.10;0.10;;;12.10;99.90;;;;;;5017098;28;20077;-80
2023/10/28 10:01:35;;;;;;;0.00;0.00;;;12.00;1.00;;;;;;4995946;28;20523;-80
2023/10/28 10:04:24;;;;;;;0.10;0.10;;;12.20;1.00;;;;;;4996184;28;20613;-79
2023/10/28 10:06:51;;;;;;;2.83;0.88;;;12.30;11.60;;;;;;5012698;28;20086;-80
2023/10/28 10:09:18;;;;;;;0.30;0.10;;;12.30;92.70;;;;;;5017784;28;20068;-80
2023/10/28 10:11:44;;;;;;;0.10;0.10;;;12.40;99.90;;;;;;5017448;28;20038;-80
2023/10/28 10:14:11;;;;;;;0.20;0.20;;;12.40;99.90;;;;;;5017108;28;20053;-80
2023/10/28 10:16:47;;;;;;;6.32;1.35;;;12.60;99.90;;;;;;5016738;28;20041;-80
2023/10/28 10:19:21;;;;;;;1.35;0.73;;;12.50;99.90;;;;;;5017527;28;20447;-80
2023/10/28 10:21:51;;;;;;;0.10;0.10;;;12.50;6.50;;;;;;5016779;28;20042;-80
2023/10/28 10:24:19;;;;;;;3.83;1.63;;;12.50;1.00;;;;;;5015616;28;20551;-80
2023/10/28 10:26:53;;;;;;;1.45;0.73;;;12.40;2.10;;;;;;5017437;28;20049;-79
2023/10/28 10:29:19;;;;;;;0.00;0.00;;;12.30;99.90;;;;;;5011841;28;20613;-80
2023/10/28 10:31:55;;;;;;;12.30;1.98;;;12.20;99.90;;;;;;5017746;28;20037;-80
2023/10/28 10:34:37;;;;;;;0.10;0.10;;;12.10;1.00;;;;;;5016393;28;20046;-80
2023/10/28 10:37:03;;;;;;;0.55;0.52;;;12.10;99.90;;;;;;5014535;28;20042;-80
2023/10/28 10:39:42;;;;;;;0.30;0.20;;;12.10;1.00;;;;;;5017097;28;20403;-80
2023/10/28 10:42:10;;;;;;;0.10;0.10;;;12.10;99.90;;;;;;5017169;28;20050;-80
2023/10/28 10:44:36;;;;;;;1.20;0.75;;;12.20;99.90;;;;;;5013036;28;20104;-80
2023/10/28 10:47:03;;;;;;;0.35;0.20;;;12.20;99.90;;;;;;5014176;28;20057;-80
2023/10/28 10:49:30;;;;;;;0.10;0.05;;;12.20;1.00;;;;;;5016846;28;20504;-80
2023/10/28 10:52:00;;;;;;;3.92;1.85;;;12.20;90.10;;;;;;5015022;28;20460;-80
2023/10/28 10:54:38;;;;;;;0.47;0.47;;;12.30;99.90;;;;;;5016319;28;20049;-80
2023/10/28 10:57:08;;;;;;;0.10;0.10;;;12.30;99.90;;;;;;5015106;28;20068;-80
2023/10/28 10:59:40;;;;;;;0.00;0.00;;;12.30;99.90;;;;;;5015934;28;20488;-80
2023/10/28 11:02:06;;;;;;;0.40;0.40;;;12.30;99.90;;;;;;5016832;28;20388;-80
2023/10/28 11:04:39;;;;;;;1.55;0.40;;;12.40;1.00;;;;;;5015537;28;20057;-80
2023/10/28 11:07:07;;;;;;;0.32;0.22;;;12.60;99.90;;;;;;5015480;28;20038;-79
2023/10/28 11:09:34;;;;;;;5.78;0.43;;;13.30;1.00;;;;;;5014504;28;20057;-79
2023/10/28 11:12:00;;;;;;;0.80;0.65;;;12.60;1.00;;;;;;5014055;28;20076;-79
2023/10/28 11:14:26;;;;;;;0.00;0.00;;;12.90;14.40;;;;;;5014438;28;20042;-79
2023/10/28 11:16:52;;;;;;;0.52;0.32;;;12.90;99.90;;;;;;5012482;28;20037;-79
2023/10/28 11:19:18;;;;;;;0.17;0.17;;;13.00;99.90;;;;;;5015644;28;20092;-80
2023/10/28 11:21:44;;;;;;;0.00;0.00;;;13.20;99.90;;;;;;5014759;28;20038;-79
2023/10/28 11:24:11;;;;;;;0.20;0.20;;;12.90;99.90;;;;;;5014951;28;20499;-80
2023/10/28 11:26:37;;;;;;;0.45;0.45;;;13.00;99.90;;;;;;5018145;28;20042;-79
2023/10/28 11:29:04;;;;;;;0.50;0.50;;;13.00;99.90;;;;;;5017763;28;20526;-79
2023/10/28 11:31:31;;;;;;;0.43;0.13;;;13.00;99.90;;;;;;5015049;28;20500;-79
2023/10/28 11:34:00;;;;;;;0.13;0.13;;;13.20;99.90;;;;;;5016934;28;20061;-79
2023/10/28 11:36:26;;;;;;;0.17;0.10;;;13.20;1.00;;;;;;5008780;28;20515;-79
2023/10/28 11:38:52;;;;;;;0.35;0.28;;;13.30;99.90;;;;;;5017422;28;20054;-80
2023/10/28 11:41:21;;;;;;;9.05;0.63;;;13.50;99.90;;;;;;5015210;28;20038;-79
2023/10/28 11:43:50;;;;;;;0.00;0.00;;;13.60;99.90;;;;;;5016399;28;20069;-80
2023/10/28 11:46:16;;;;;;;0.82;0.50;;;13.50;99.90;;;;;;5018735;28;20054;-79
2023/10/28 11:48:45;;;;;;;0.25;0.25;;;13.50;1.00;;;;;;5020632;28;20034;-79
2023/10/28 11:51:12;;;;;;;0.70;0.32;;;13.40;1.00;;;;;;5020256;28;20045;-79
2023/10/28 11:53:44;;;;;;;0.68;0.55;;;13.30;99.90;;;;;;5021469;28;20049;-79
2023/10/28 11:56:09;;;;;;;0.10;0.10;;;13.30;1.00;;;;;;5020064;28;20492;-80
2023/10/28 11:58:35;;;;;;;0.40;0.38;;;13.40;99.90;;;;;;5020910;28;20045;-79
2023/10/28 12:01:01;;;;;;;0.17;0.17;;;13.50;99.90;;;;;;5021267;28;20045;-80
2023/10/28 12:03:27;;;;;;;0.00;0.00;;;13.50;99.90;;;;;;5020587;28;20518;-79
2023/10/28 12:05:53;;;;;;;0.00;0.00;;;13.60;99.90;;;;;;5021051;28;20514;-79
2023/10/28 12:08:19;;;;;;;0.13;0.13;;;13.90;99.90;;;;;;5022146;28;20075;-80
2023/10/28 12:10:46;;;;;;;3.40;1.50;;;13.60;23.50;;;;;;5021119;28;20056;-79
2023/10/28 12:13:18;;;;;;;0.75;0.75;;;14.90;1.00;;;;;;5020490;28;20459;-79
2023/10/28 12:15:44;;;;;;;0.10;0.10;;;13.60;99.90;;;;;;5021060;28;20399;-79
2023/10/28 12:18:09;;;;;;;1.00;0.38;;;13.50;7.80;;;;;;5021981;28;20052;-80
2023/10/28 12:20:36;;;;;;;0.30;0.13;;;13.50;99.90;;;;;;5021600;28;20065;-80
2023/10/28 12:23:01;;;;;;;1.45;0.20;;;13.60;99.90;;;;;;5021013;28;20407;-79
2023/10/28 12:25:27;;;;;;;0.35;0.30;;;13.70;99.90;;;;;;5021072;28;20121;-79
2023/10/28 12:27:52;;;;;;;2.22;1.38;;;13.70;99.90;;;;;;5021398;28;20113;-81
2023/10/28 12:30:19;;;;;;;0.52;0.25;;;13.70;1.00;;;;;;5021993;28;20087;-80
2023/10/28 12:32:49;;;;;;;0.00;0.00;;;13.70;99.90;;;;;;5021544;28;20041;-80
2023/10/28 12:35:15;;;;;;;1.60;0.10;;;13.80;99.90;;;;;;5020803;28;20053;-80
2023/10/28 12:37:41;;;;;;;1.27;0.28;;;13.70;99.90;;;;;;5020947;28;20487;-79
2023/10/28 12:40:09;;;;;;;0.55;0.43;;;13.80;1.00;;;;;;5020974;28;20044;-79
2023/10/28 12:42:36;;;;;;;0.45;0.32;;;13.70;99.90;;;;;;5021932;28;20046;-80
2023/10/28 12:45:03;;;;;;;0.03;0.03;;;13.70;32.10;;;;;;5020761;28;20496;-80
2023/10/28 12:47:29;;;;;;;0.10;0.10;;;13.70;99.90;;;;;;5020624;28;20044;-80
2023/10/28 12:49:55;;;;;;;0.00;0.00;;;13.70;99.90;;;;;;5020795;28;20081;-80
2023/10/28 12:52:21;;;;;;;0.98;0.88;;;13.60;99.90;;;;;;5021259;28;20045;-80